Portada
METAR-TAF:

METAR-TAF

Aeroports :

Bobo-Dioulasso, Burkina Faso

latitud: 11-10N, longitud: 004-19W, altitud: 460 m

Observació

L'informe es va fer fa 1 hora i 17 minuts, a les 05:00 UTC
Vent 6 kt del Nord/Nord-Est
Temperatura 18°C
Humitat 32%
Pressió 1014 hPa
Visibilitat: 6000 m

METAR: DFOO 290500Z 02006KT 6000 NSC 18/01 Q1014

Hora: 06:17 (06:17 UTC)

Pronòstic

L'informe es va fer fa 1 hora i 17 minuts, a les 05:00 UTC
Pronòstic vàlid del 29 a les 06 UTC al 30 a les 06 UTC
Vent 10 kt del Nord/Nord-Est
Visibilitat: 4000 m
Pols estès
Temporalment
l' 29 a les 06 UTC al 29 a les 10 UTC
Visibilitat: 2500 m
Pols estès
Evolucionant progressivament
l' 29 a les 22 UTC al 29 a les 24 UTC
Visibilitat: 6000 m

TAF: DFOO 290500Z 2906/3006 02010KT 4000 DU NSC TEMPO 2906/2910 2500 DU BECMG 2922/2924 6000 NSW

Observacions i pronòstics meteorològics de més de 4000 aeroports (METAR i TAF).

Les estacions disponibles són els punts grocs i vermells al mapa.

Posi el ratolí al punt desitjat per veure el nom de l'estació.

Feu clic per veure les observacions i els pronòstics meteorològics.

Per canviar el mapa: feu clic els botons verds amb una creu de color negre per apropar; al botó verd amb un guió per allunyar la imatge; o en les fletxes verdes per a mapes adjacents.


METAR-TAF: